createdAt,value
2019-01-27T00:04:40.360Z,87.09
2019-01-27T00:09:41.979Z,87.04
2019-01-27T00:14:43.611Z,87.14
2019-01-27T00:19:45.642Z,87.01
2019-01-27T00:24:47.189Z,87.23
2019-01-27T00:29:48.744Z,87.18
2019-01-27T00:34:50.550Z,87.23
2019-01-27T00:39:52.072Z,87.18
2019-01-27T00:44:53.685Z,87.08
2019-01-27T00:49:57.140Z,87.08
2019-01-27T00:54:58.734Z,87.10
2019-01-27T01:00:00.721Z,86.90
2019-01-27T01:05:02.231Z,87.27
2019-01-27T01:10:05.010Z,87.25
2019-01-27T01:15:08.090Z,87.07
2019-01-27T01:20:15.079Z,87.02
2019-01-27T01:25:19.263Z,87.12
2019-01-27T01:30:23.378Z,87.03
2019-01-27T01:35:25.122Z,87.02
2019-01-27T01:40:26.673Z,87.01
2019-01-27T01:45:30.713Z,86.89
2019-01-27T01:50:32.258Z,86.92
2019-01-27T01:55:33.831Z,86.87
2019-01-27T02:00:35.879Z,86.92
2019-01-27T02:05:37.428Z,87.06
2019-01-27T02:10:38.999Z,87.21
2019-01-27T02:16:00.888Z,87.15
2019-01-27T02:21:03.360Z,87.04
2019-01-27T02:26:05.461Z,87.10
2019-01-27T02:31:06.980Z,87.13
2019-01-27T02:36:08.596Z,87.11
2019-01-27T02:41:10.139Z,87.16
2019-01-27T02:46:11.755Z,87.13
2019-01-27T02:51:13.675Z,87.01
2019-01-27T02:56:15.809Z,86.98
2019-01-27T03:01:17.347Z,86.98
2019-01-27T03:06:18.929Z,87.02
2019-01-27T03:11:20.504Z,87.21
2019-01-27T03:16:22.115Z,87.14
2019-01-27T03:21:23.676Z,87.20
2019-01-27T03:26:26.528Z,87.16
2019-01-27T03:31:28.073Z,87.02
2019-01-27T03:36:29.677Z,86.99
2019-01-27T03:41:31.173Z,86.92
2019-01-27T03:46:32.847Z,86.88
2019-01-27T03:51:34.427Z,86.82
2019-01-27T03:56:36.355Z,86.87
2019-01-27T04:01:37.954Z,86.98
2019-01-27T04:06:39.546Z,86.81
2019-01-27T04:11:41.046Z,86.89
2019-01-27T04:16:42.669Z,86.92
2019-01-27T04:21:44.191Z,86.88
2019-01-27T04:26:45.780Z,86.80
2019-01-27T04:31:47.537Z,86.83
2019-01-27T04:36:49.125Z,86.78
2019-01-27T04:41:50.697Z,86.78
2019-01-27T04:46:52.591Z,86.83
2019-01-27T04:51:54.182Z,86.86
2019-01-27T04:56:55.749Z,86.93
2019-01-27T05:01:57.759Z,86.97
2019-01-27T05:06:59.341Z,86.96
2019-01-27T05:12:00.875Z,86.98
2019-01-27T05:17:02.488Z,86.93
2019-01-27T05:22:04.068Z,86.93
2019-01-27T05:27:05.655Z,86.95
2019-01-27T05:32:08.999Z,86.87
2019-01-27T05:37:10.550Z,86.87
2019-01-27T05:42:12.178Z,86.94
2019-01-27T05:47:13.746Z,86.96
2019-01-27T05:52:15.293Z,86.98
2019-01-27T05:57:16.840Z,86.85
2019-01-27T06:02:18.406Z,86.83
2019-01-27T06:07:20.012Z,86.84
2019-01-27T06:12:21.575Z,86.91
2019-01-27T06:17:23.099Z,86.88
2019-01-27T06:22:24.658Z,86.94
2019-01-27T06:27:26.269Z,86.92
2019-01-27T06:32:28.201Z,86.83
2019-01-27T06:37:30.489Z,86.84
2019-01-27T06:42:32.090Z,86.89
2019-01-27T06:47:33.736Z,86.91
2019-01-27T06:52:35.304Z,86.82
2019-01-27T06:57:36.862Z,86.91
2019-01-27T07:02:38.450Z,86.89
2019-01-27T07:07:40.006Z,86.84
2019-01-27T07:12:41.563Z,87.11
2019-01-27T07:17:43.154Z,87.13
2019-01-27T07:22:44.690Z,87.23
2019-01-27T07:27:46.334Z,87.25
2019-01-27T07:32:47.891Z,87.24
2019-01-27T07:37:49.434Z,87.25
2019-01-27T07:42:51.644Z,87.24
2019-01-27T07:47:53.408Z,87.11
2019-01-27T07:52:54.942Z,87.07
2019-01-27T07:57:56.539Z,86.99
2019-01-27T08:02:58.096Z,86.97
2019-01-27T08:07:59.663Z,86.94
2019-01-27T08:13:01.598Z,86.86
2019-01-27T08:18:03.233Z,86.88
2019-01-27T08:23:05.751Z,86.75
2019-01-27T08:28:07.377Z,86.60
2019-01-27T08:33:09.294Z,86.55
2019-01-27T08:38:10.891Z,86.50
2019-01-27T08:43:12.591Z,86.27
2019-01-27T08:48:14.238Z,86.00
2019-01-27T08:53:15.904Z,85.87
2019-01-27T08:58:17.597Z,85.71
2019-01-27T09:03:21.014Z,85.23
2019-01-27T09:08:23.155Z,85.19
2019-01-27T09:13:25.195Z,85.24
2019-01-27T09:18:26.974Z,85.01
2019-01-27T09:23:28.572Z,84.59
2019-01-27T09:28:30.192Z,84.34
2019-01-27T09:33:32.522Z,84.38
2019-01-27T09:38:34.154Z,84.82
2019-01-27T09:43:36.023Z,85.23
2019-01-27T09:48:37.699Z,85.29
2019-01-27T09:53:39.363Z,85.71
2019-01-27T09:58:41.041Z,85.92
2019-01-27T10:03:42.633Z,85.88
2019-01-27T10:08:44.285Z,85.85
2019-01-27T10:13:45.980Z,85.91
2019-01-27T10:18:47.548Z,86.19
2019-01-27T10:23:49.148Z,86.37
2019-01-27T10:28:50.861Z,86.25
2019-01-27T10:33:52.375Z,86.08
2019-01-27T10:38:53.993Z,85.38
2019-01-27T10:43:56.183Z,85.14
2019-01-27T10:48:59.121Z,85.34
2019-01-27T10:54:00.750Z,85.69
2019-01-27T10:59:02.518Z,85.54
2019-01-27T11:04:04.622Z,85.73
2019-01-27T11:09:07.300Z,86.00
2019-01-27T11:14:09.022Z,86.03
2019-01-27T11:19:10.566Z,85.94
2019-01-27T11:24:12.181Z,85.58
2019-01-27T11:29:13.837Z,85.33
2019-01-27T11:34:15.389Z,85.57
2019-01-27T11:39:17.034Z,85.79
2019-01-27T11:44:18.619Z,86.17
2019-01-27T11:49:20.625Z,85.63
2019-01-27T11:54:22.616Z,84.68
2019-01-27T11:59:24.205Z,84.92
2019-01-27T12:04:26.072Z,84.65
2019-01-27T12:09:28.699Z,85.36
2019-01-27T12:14:30.953Z,85.16
2019-01-27T12:19:32.684Z,85.99
2019-01-27T12:24:34.703Z,85.44
2019-01-27T12:29:37.398Z,85.09
2019-01-27T12:34:39.055Z,84.93
2019-01-27T12:39:41.790Z,84.45
2019-01-27T12:44:43.337Z,84.45
2019-01-27T12:49:45.001Z,83.34
2019-01-27T12:54:48.381Z,82.30
2019-01-27T12:59:51.008Z,82.32
2019-01-27T13:04:52.622Z,83.12
2019-01-27T13:09:54.389Z,83.83
2019-01-27T13:14:55.970Z,83.46
2019-01-27T13:19:57.598Z,83.68
2019-01-27T13:24:59.244Z,82.95
2019-01-27T13:30:00.833Z,83.01
2019-01-27T13:35:02.826Z,83.13
2019-01-27T13:40:08.156Z,83.72
2019-01-27T13:45:12.181Z,82.13
2019-01-27T13:50:14.002Z,80.72
2019-01-27T13:55:21.883Z,79.25
2019-01-27T14:00:34.325Z,77.85
2019-01-27T14:05:35.882Z,80.28
2019-01-27T14:10:37.475Z,77.79
2019-01-27T14:15:39.136Z,78.38
2019-01-27T14:20:41.033Z,78.81
2019-01-27T14:25:43.851Z,76.92
2019-01-27T14:30:45.403Z,80.00
2019-01-27T14:35:48.440Z,77.66
2019-01-27T14:40:51.157Z,77.96
2019-01-27T14:45:52.742Z,78.03
2019-01-27T14:50:54.695Z,77.26
2019-01-27T14:55:56.307Z,79.21
2019-01-27T15:00:58.161Z,78.55
2019-01-27T15:05:59.789Z,78.43
2019-01-27T15:11:01.677Z,78.65
2019-01-27T15:16:03.287Z,76.87
2019-01-27T15:21:09.474Z,77.16
2019-01-27T15:26:12.904Z,75.93
2019-01-27T15:31:16.881Z,76.58
2019-01-27T15:36:19.604Z,76.56
2019-01-27T15:41:21.850Z,75.99
2019-01-27T15:46:23.883Z,77.77
2019-01-27T15:51:27.241Z,78.84
2019-01-27T15:56:30.758Z,79.33
2019-01-27T16:01:32.432Z,79.96
2019-01-27T16:06:34.089Z,79.95
2019-01-27T16:11:35.852Z,81.09
2019-01-27T16:16:37.882Z,80.46
2019-01-27T16:21:39.588Z,80.63
2019-01-27T16:26:41.328Z,83.39
2019-01-27T16:31:43.260Z,82.52
2019-01-27T16:36:47.213Z,83.03
2019-01-27T16:41:50.954Z,80.86
2019-01-27T16:46:54.507Z,83.16
2019-01-27T16:51:57.078Z,82.71
2019-01-27T16:56:59.107Z,82.22
2019-01-27T17:02:00.726Z,80.45
2019-01-27T17:07:02.477Z,79.83
2019-01-27T17:12:04.130Z,80.18
2019-01-27T17:17:05.904Z,80.21
2019-01-27T17:22:07.532Z,79.05
2019-01-27T17:27:10.637Z,80.80
2019-01-27T17:32:12.249Z,80.88
2019-01-27T17:37:14.986Z,80.63
2019-01-27T17:42:16.871Z,79.70
2019-01-27T17:47:22.698Z,80.81
2019-01-27T17:52:24.466Z,82.11
2019-01-27T17:57:26.544Z,81.82
2019-01-27T18:02:28.245Z,82.44
2019-01-27T18:07:29.917Z,82.14
2019-01-27T18:12:34.966Z,82.90
2019-01-27T18:17:37.073Z,82.70
2019-01-27T18:22:39.000Z,83.28
2019-01-27T18:27:40.844Z,83.37
2019-01-27T18:32:42.725Z,83.79
2019-01-27T18:37:44.940Z,84.00
2019-01-27T18:42:46.689Z,83.85
2019-01-27T18:47:48.532Z,83.86
2019-01-27T18:52:50.224Z,82.65
2019-01-27T18:57:52.566Z,82.03
2019-01-27T19:02:57.547Z,83.03
2019-01-27T19:08:01.576Z,83.34
2019-01-27T19:13:04.583Z,83.00
2019-01-27T19:18:07.202Z,83.00
2019-01-27T19:23:09.478Z,82.72
2019-01-27T19:28:11.323Z,84.12
2019-01-27T19:33:16.546Z,84.22
2019-01-27T19:38:21.224Z,84.28
2019-01-27T19:43:23.440Z,84.24
2019-01-27T19:48:31.521Z,84.53
2019-01-27T19:53:35.031Z,84.51
2019-01-27T19:58:39.573Z,83.89
2019-01-27T20:03:42.838Z,83.39
2019-01-27T20:08:47.679Z,83.81
2019-01-27T20:13:51.421Z,83.81
2019-01-27T20:18:53.167Z,81.91
2019-01-27T20:23:55.357Z,81.63
2019-01-27T20:28:58.027Z,80.56
2019-01-27T20:33:59.607Z,81.12
2019-01-27T20:39:01.799Z,82.13
2019-01-27T20:44:05.421Z,81.23
2019-01-27T20:49:08.894Z,83.13
2019-01-27T20:54:10.751Z,81.30
2019-01-27T20:59:14.195Z,82.22
2019-01-27T21:04:15.873Z,81.13
2019-01-27T21:09:17.767Z,82.39
2019-01-27T21:14:20.938Z,83.35
2019-01-27T21:19:24.024Z,84.09
2019-01-27T21:24:25.769Z,84.58
2019-01-27T21:29:27.390Z,84.39
2019-01-27T21:34:28.998Z,84.52
2019-01-27T21:39:31.638Z,85.42
2019-01-27T21:44:33.296Z,85.99
2019-01-27T21:49:34.972Z,86.04
2019-01-27T21:54:36.668Z,86.23
2019-01-27T21:59:38.983Z,86.37
2019-01-27T22:04:40.706Z,86.59
2019-01-27T22:09:42.322Z,86.85
2019-01-27T22:14:45.070Z,86.79
2019-01-27T22:19:46.660Z,86.85
2019-01-27T22:24:49.598Z,87.22
2019-01-27T22:29:51.693Z,87.30
2019-01-27T22:34:53.246Z,87.57
2019-01-27T22:39:54.857Z,87.52
2019-01-27T22:44:56.552Z,87.60
2019-01-27T22:49:58.113Z,87.49
2019-01-27T22:54:59.729Z,87.51
2019-01-27T23:00:03.484Z,87.42
2019-01-27T23:05:05.349Z,87.42
2019-01-27T23:10:06.919Z,87.41
2019-01-27T23:15:08.558Z,87.46
2019-01-27T23:20:10.262Z,87.46
2019-01-27T23:25:11.852Z,87.27
2019-01-27T23:30:13.454Z,87.38
2019-01-27T23:35:15.006Z,87.54
2019-01-27T23:40:16.593Z,87.39
2019-01-27T23:45:18.162Z,87.45
2019-01-27T23:50:20.548Z,87.53
2019-01-27T23:55:22.115Z,87.96
